sensor_id;sensor_type;location;lat;lon;timestamp;pressure;altitude;pressure_sealevel;temperature;humidity
62402;BME280;48440;51.224;22.506;2023-07-20T00:01:43;98355.56;;;20.23;64.77
62402;BME280;48440;51.224;22.506;2023-07-20T00:04:10;98349.72;;;20.25;65.01
62402;BME280;48440;51.224;22.506;2023-07-20T00:06:35;98351.53;;;20.21;64.64
62402;BME280;48440;51.224;22.506;2023-07-20T00:09:01;98351.75;;;20.16;64.97
62402;BME280;48440;51.224;22.506;2023-07-20T00:11:27;98346.78;;;20.09;65.39
62402;BME280;48440;51.224;22.506;2023-07-20T00:13:53;98336.44;;;20.06;65.80
62402;BME280;48440;51.224;22.506;2023-07-20T00:16:18;98335.50;;;20.02;65.72
62402;BME280;48440;51.224;22.506;2023-07-20T00:18:44;98332.88;;;20.06;65.48
62402;BME280;48440;51.224;22.506;2023-07-20T00:21:09;98329.34;;;20.05;65.92
62402;BME280;48440;51.224;22.506;2023-07-20T00:23:35;98327.50;;;19.97;65.81
62402;BME280;48440;51.224;22.506;2023-07-20T00:26:00;98328.31;;;19.97;66.07
62402;BME280;48440;51.224;22.506;2023-07-20T00:28:26;98334.00;;;19.92;66.19
62402;BME280;48440;51.224;22.506;2023-07-20T00:30:51;98325.63;;;19.89;66.19
62402;BME280;48440;51.224;22.506;2023-07-20T00:33:17;98333.63;;;19.82;66.72
62402;BME280;48440;51.224;22.506;2023-07-20T00:35:43;98320.88;;;19.77;67.00
62402;BME280;48440;51.224;22.506;2023-07-20T00:38:09;98321.66;;;19.78;66.88
62402;BME280;48440;51.224;22.506;2023-07-20T00:40:39;98321.19;;;19.76;67.22
62402;BME280;48440;51.224;22.506;2023-07-20T00:43:04;98320.88;;;19.77;66.97
62402;BME280;48440;51.224;22.506;2023-07-20T00:45:31;98319.25;;;19.76;67.46
62402;BME280;48440;51.224;22.506;2023-07-20T00:47:58;98311.09;;;19.68;67.46
62402;BME280;48440;51.224;22.506;2023-07-20T00:50:24;98307.06;;;19.65;67.57
62402;BME280;48440;51.224;22.506;2023-07-20T00:52:50;98304.66;;;19.63;67.35
62402;BME280;48440;51.224;22.506;2023-07-20T00:55:16;98303.72;;;19.59;67.64
62402;BME280;48440;51.224;22.506;2023-07-20T00:57:41;98297.75;;;19.57;67.20
62402;BME280;48440;51.224;22.506;2023-07-20T01:00:07;98291.63;;;19.52;67.83
62402;BME280;48440;51.224;22.506;2023-07-20T01:02:33;98290.84;;;19.51;67.58
62402;BME280;48440;51.224;22.506;2023-07-20T01:04:59;98293.25;;;19.53;67.89
62402;BME280;48440;51.224;22.506;2023-07-20T01:07:30;98289.56;;;19.49;67.93
62402;BME280;48440;51.224;22.506;2023-07-20T01:10:04;98284.94;;;19.41;68.32
62402;BME280;48440;51.224;22.506;2023-07-20T01:12:42;98289.22;;;19.29;68.47
62402;BME280;48440;51.224;22.506;2023-07-20T01:15:09;98289.22;;;19.29;68.81
62402;BME280;48440;51.224;22.506;2023-07-20T01:17:35;98291.72;;;19.22;68.75
62402;BME280;48440;51.224;22.506;2023-07-20T01:20:01;98286.34;;;19.26;68.94
62402;BME280;48440;51.224;22.506;2023-07-20T01:28:23;98280.25;;;19.20;68.85
62402;BME280;48440;51.224;22.506;2023-07-20T01:33:38;98268.78;;;19.18;69.32
62402;BME280;48440;51.224;22.506;2023-07-20T01:36:05;98267.03;;;19.14;69.37
62402;BME280;48440;51.224;22.506;2023-07-20T01:38:30;98268.97;;;19.13;69.46
62402;BME280;48440;51.224;22.506;2023-07-20T01:40:57;98262.81;;;19.16;69.82
62402;BME280;48440;51.224;22.506;2023-07-20T01:43:22;98271.41;;;19.15;70.08
62402;BME280;48440;51.224;22.506;2023-07-20T01:45:48;98283.19;;;19.15;70.51
62402;BME280;48440;51.224;22.506;2023-07-20T01:48:13;98285.28;;;19.18;70.48
62402;BME280;48440;51.224;22.506;2023-07-20T01:50:38;98285.41;;;19.22;70.42
62402;BME280;48440;51.224;22.506;2023-07-20T01:53:04;98293.19;;;19.20;70.42
62402;BME280;48440;51.224;22.506;2023-07-20T01:55:29;98298.38;;;19.21;70.35
62402;BME280;48440;51.224;22.506;2023-07-20T01:57:55;98302.84;;;19.26;70.49
62402;BME280;48440;51.224;22.506;2023-07-20T02:00:20;98299.59;;;19.24;70.52
62402;BME280;48440;51.224;22.506;2023-07-20T02:02:49;98308.66;;;19.24;70.21
62402;BME280;48440;51.224;22.506;2023-07-20T02:05:15;98309.47;;;19.25;70.15
62402;BME280;48440;51.224;22.506;2023-07-20T02:07:41;98318.53;;;19.25;69.99
62402;BME280;48440;51.224;22.506;2023-07-20T02:10:07;98318.28;;;19.18;69.94
62402;BME280;48440;51.224;22.506;2023-07-20T02:12:32;98324.78;;;19.14;70.09
62402;BME280;48440;51.224;22.506;2023-07-20T02:14:58;98315.06;;;19.16;69.95
62402;BME280;48440;51.224;22.506;2023-07-20T02:17:23;98321.56;;;19.12;69.88
62402;BME280;48440;51.224;22.506;2023-07-20T02:19:56;98313.16;;;19.08;70.50
62402;BME280;48440;51.224;22.506;2023-07-20T02:22:25;98309.47;;;19.04;70.54
62402;BME280;48440;51.224;22.506;2023-07-20T02:24:50;98309.66;;;18.99;70.91
62402;BME280;48440;51.224;22.506;2023-07-20T02:27:16;98307.78;;;18.91;71.07
62402;BME280;48440;51.224;22.506;2023-07-20T02:29:41;98304.84;;;18.96;70.68
62402;BME280;48440;51.224;22.506;2023-07-20T02:32:08;98303.91;;;18.92;70.75
62402;BME280;48440;51.224;22.506;2023-07-20T02:34:35;98298.88;;;18.94;70.51
62402;BME280;48440;51.224;22.506;2023-07-20T02:37:00;98301.81;;;18.89;70.90
62402;BME280;48440;51.224;22.506;2023-07-20T02:39:29;98290.97;;;18.92;70.80
62402;BME280;48440;51.224;22.506;2023-07-20T02:41:55;98297.28;;;18.93;70.93
62402;BME280;48440;51.224;22.506;2023-07-20T02:44:21;98291.63;;;18.89;71.37
62402;BME280;48440;51.224;22.506;2023-07-20T02:46:46;98293.06;;;18.95;71.06
62402;BME280;48440;51.224;22.506;2023-07-20T02:49:12;98281.09;;;18.91;71.36
62402;BME280;48440;51.224;22.506;2023-07-20T02:51:37;98286.06;;;18.98;71.15
62402;BME280;48440;51.224;22.506;2023-07-20T02:54:03;98289.94;;;18.97;70.99
62402;BME280;48440;51.224;22.506;2023-07-20T02:56:29;98285.13;;;18.94;71.36
62402;BME280;48440;51.224;22.506;2023-07-20T02:58:54;98287.41;;;18.92;71.54
62402;BME280;48440;51.224;22.506;2023-07-20T03:01:20;98294.66;;;18.96;71.28
62402;BME280;48440;51.224;22.506;2023-07-20T03:03:45;98298.31;;;19.01;71.25
62402;BME280;48440;51.224;22.506;2023-07-20T03:06:15;98299.13;;;19.01;71.17
62402;BME280;48440;51.224;22.506;2023-07-20T03:08:44;98300.06;;;19.05;71.09
62402;BME280;48440;51.224;22.506;2023-07-20T03:11:10;98305.25;;;19.07;71.64
62402;BME280;48440;51.224;22.506;2023-07-20T03:13:36;98304.25;;;19.11;71.24
62402;BME280;48440;51.224;22.506;2023-07-20T03:16:01;98303.91;;;19.13;70.94
62402;BME280;48440;51.224;22.506;2023-07-20T03:18:26;98298.56;;;19.16;71.03
62402;BME280;48440;51.224;22.506;2023-07-20T03:20:52;98300.38;;;19.12;71.13
62402;BME280;48440;51.224;22.506;2023-07-20T03:23:17;98291.63;;;19.10;70.65
62402;BME280;48440;51.224;22.506;2023-07-20T03:25:43;98291.50;;;19.07;70.63
62402;BME280;48440;51.224;22.506;2023-07-20T03:28:08;98294.09;;;19.03;71.02
62402;BME280;48440;51.224;22.506;2023-07-20T03:30:34;98295.09;;;18.98;71.24
62402;BME280;48440;51.224;22.506;2023-07-20T03:33:00;98302.09;;;18.96;71.34
62402;BME280;48440;51.224;22.506;2023-07-20T03:35:25;98294.53;;;18.93;71.31
62402;BME280;48440;51.224;22.506;2023-07-20T03:37:51;98288.56;;;18.91;71.37
62402;BME280;48440;51.224;22.506;2023-07-20T03:40:17;98293.25;;;18.90;71.86
62402;BME280;48440;51.224;22.506;2023-07-20T03:42:43;98290.16;;;18.92;71.83
62402;BME280;48440;51.224;22.506;2023-07-20T03:45:08;98286.94;;;18.90;72.22
62402;BME280;48440;51.224;22.506;2023-07-20T03:47:34;98289.88;;;18.85;72.34
62402;BME280;48440;51.224;22.506;2023-07-20T03:49:59;98287.88;;;18.94;71.95
62402;BME280;48440;51.224;22.506;2023-07-20T03:52:25;98287.56;;;18.95;72.28
62402;BME280;48440;51.224;22.506;2023-07-20T03:54:50;98286.06;;;18.98;72.11
62402;BME280;48440;51.224;22.506;2023-07-20T03:57:18;98280.91;;;18.96;71.82
62402;BME280;48440;51.224;22.506;2023-07-20T03:59:48;98275.06;;;18.98;72.19
62402;BME280;48440;51.224;22.506;2023-07-20T04:02:13;98278.28;;;19.00;72.39
62402;BME280;48440;51.224;22.506;2023-07-20T04:04:39;98275.06;;;18.98;72.49
62402;BME280;48440;51.224;22.506;2023-07-20T04:07:04;98284.34;;;18.93;73.20
62402;BME280;48440;51.224;22.506;2023-07-20T04:09:31;98284.00;;;18.95;73.19
62402;BME280;48440;51.224;22.506;2023-07-20T04:11:56;98286.28;;;18.93;73.45
62402;BME280;48440;51.224;22.506;2023-07-20T04:14:22;98282.38;;;18.94;73.58
62402;BME280;48440;51.224;22.506;2023-07-20T04:16:47;98279.31;;;18.95;73.83
62402;BME280;48440;51.224;22.506;2023-07-20T04:19:13;98288.94;;;19.02;74.31
62402;BME280;48440;51.224;22.506;2023-07-20T04:21:41;98282.31;;;19.03;74.74
62402;BME280;48440;51.224;22.506;2023-07-20T04:24:07;98290.38;;;19.08;74.74
62402;BME280;48440;51.224;22.506;2023-07-20T04:26:32;98311.03;;;19.14;74.85
62402;BME280;48440;51.224;22.506;2023-07-20T04:28:58;98332.84;;;19.19;75.13
62402;BME280;48440;51.224;22.506;2023-07-20T04:31:24;98316.34;;;19.19;75.65
62402;BME280;48440;51.224;22.506;2023-07-20T04:33:50;98317.63;;;19.21;75.75
62402;BME280;48440;51.224;22.506;2023-07-20T04:36:15;98320.47;;;19.25;76.02
62402;BME280;48440;51.224;22.506;2023-07-20T04:38:45;98313.72;;;19.22;76.32
62402;BME280;48440;51.224;22.506;2023-07-20T04:41:10;98310.03;;;19.18;75.97
62402;BME280;48440;51.224;22.506;2023-07-20T04:43:41;98308.75;;;19.16;75.91
62402;BME280;48440;51.224;22.506;2023-07-20T04:46:06;98319.88;;;19.19;75.81
62402;BME280;48440;51.224;22.506;2023-07-20T04:48:32;98317.47;;;19.18;75.66
62402;BME280;48440;51.224;22.506;2023-07-20T04:50:57;98341.41;;;19.17;75.65
62402;BME280;48440;51.224;22.506;2023-07-20T04:53:23;98381.66;;;19.22;75.87
62402;BME280;48440;51.224;22.506;2023-07-20T04:55:49;98375.28;;;19.30;75.16
62402;BME280;48440;51.224;22.506;2023-07-20T04:58:21;98380.41;;;19.40;75.07
62402;BME280;48440;51.224;22.506;2023-07-20T05:00:50;98385.66;;;19.54;74.50
62402;BME280;48440;51.224;22.506;2023-07-20T05:03:16;98379.97;;;19.59;75.00
62402;BME280;48440;51.224;22.506;2023-07-20T05:05:42;98379.91;;;19.68;74.65
62402;BME280;48440;51.224;22.506;2023-07-20T05:08:08;98385.75;;;19.66;75.30
62402;BME280;48440;51.224;22.506;2023-07-20T05:10:43;98386.28;;;19.59;76.04
62402;BME280;48440;51.224;22.506;2023-07-20T05:13:09;98381.38;;;19.65;75.48
62402;BME280;48440;51.224;22.506;2023-07-20T05:15:35;98379.91;;;19.68;74.65
62402;BME280;48440;51.224;22.506;2023-07-20T05:18:00;98377.94;;;19.68;74.62
62402;BME280;48440;51.224;22.506;2023-07-20T05:20:26;98377.41;;;19.75;74.32
62402;BME280;48440;51.224;22.506;2023-07-20T05:22:54;98372.63;;;19.84;73.43
62402;BME280;48440;51.224;22.506;2023-07-20T05:25:20;98375.50;;;19.87;72.52
62402;BME280;48440;51.224;22.506;2023-07-20T05:27:47;98368.72;;;19.85;72.84
62402;BME280;48440;51.224;22.506;2023-07-20T05:30:13;98368.19;;;19.91;72.17
62402;BME280;48440;51.224;22.506;2023-07-20T05:32:39;98369.38;;;20.03;71.65
62402;BME280;48440;51.224;22.506;2023-07-20T05:35:05;98380.91;;;20.17;70.86
62402;BME280;48440;51.224;22.506;2023-07-20T05:37:30;98378.41;;;20.24;70.59
62402;BME280;48440;51.224;22.506;2023-07-20T05:39:56;98384.59;;;20.33;69.37
62402;BME280;48440;51.224;22.506;2023-07-20T05:42:22;98377.34;;;20.28;69.13
62402;BME280;48440;51.224;22.506;2023-07-20T05:44:48;98377.69;;;20.27;69.01
62402;BME280;48440;51.224;22.506;2023-07-20T05:47:15;98384.25;;;20.22;68.65
62402;BME280;48440;51.224;22.506;2023-07-20T05:49:40;98384.13;;;20.19;68.76
62402;BME280;48440;51.224;22.506;2023-07-20T05:52:09;98378.41;;;20.24;67.92
62402;BME280;48440;51.224;22.506;2023-07-20T05:54:41;98384.94;;;20.31;67.98
62402;BME280;48440;51.224;22.506;2023-07-20T05:57:13;98390.13;;;20.33;67.87
62402;BME280;48440;51.224;22.506;2023-07-20T05:59:43;98383.00;;;20.32;67.63
62402;BME280;48440;51.224;22.506;2023-07-20T06:02:10;98386.09;;;20.30;67.79
62402;BME280;48440;51.224;22.506;2023-07-20T06:04:36;98392.88;;;20.33;67.52
62402;BME280;48440;51.224;22.506;2023-07-20T06:07:02;98402.84;;;20.25;67.65
62402;BME280;48440;51.224;22.506;2023-07-20T06:09:27;98406.50;;;20.17;67.43
62402;BME280;48440;51.224;22.506;2023-07-20T06:11:54;98424.28;;;20.20;67.26
62402;BME280;48440;51.224;22.506;2023-07-20T06:14:21;98426.72;;;20.21;66.88
62402;BME280;48440;51.224;22.506;2023-07-20T06:16:47;98419.66;;;20.12;66.98
62402;BME280;48440;51.224;22.506;2023-07-20T06:19:13;98435.56;;;20.06;67.05
62402;BME280;48440;51.224;22.506;2023-07-20T06:21:39;98456.75;;;19.93;67.12
62402;BME280;48440;51.224;22.506;2023-07-20T06:24:05;98482.78;;;19.75;66.75
62402;BME280;48440;51.224;22.506;2023-07-20T06:26:30;98505.09;;;19.53;67.82
62402;BME280;48440;51.224;22.506;2023-07-20T06:28:56;98506.78;;;19.37;67.32
62402;BME280;48440;51.224;22.506;2023-07-20T06:31:22;98500.03;;;19.25;67.90
62402;BME280;48440;51.224;22.506;2023-07-20T06:33:48;98486.03;;;19.18;68.15
62402;BME280;48440;51.224;22.506;2023-07-20T06:36:15;98476.63;;;19.19;68.52
62402;BME280;48440;51.224;22.506;2023-07-20T06:38:41;98479.38;;;19.19;67.87
62402;BME280;48440;51.224;22.506;2023-07-20T06:41:06;98473.88;;;19.19;67.95
62402;BME280;48440;51.224;22.506;2023-07-20T06:43:32;98462.81;;;19.28;67.63
62402;BME280;48440;51.224;22.506;2023-07-20T06:45:57;98451.13;;;19.40;66.94
62402;BME280;48440;51.224;22.506;2023-07-20T06:48:23;98458.94;;;19.29;66.53
62402;BME280;48440;51.224;22.506;2023-07-20T06:50:48;98460.25;;;19.23;66.42
62402;BME280;48440;51.224;22.506;2023-07-20T06:53:14;98451.13;;;19.10;67.07
62402;BME280;48440;51.224;22.506;2023-07-20T06:55:42;98442.81;;;19.19;66.92
62402;BME280;48440;51.224;22.506;2023-07-20T06:58:07;98446.00;;;19.29;66.20
62402;BME280;48440;51.224;22.506;2023-07-20T07:00:33;98444.19;;;19.33;65.76
62402;BME280;48440;51.224;22.506;2023-07-20T07:02:58;98451.97;;;19.31;65.08
62402;BME280;48440;51.224;22.506;2023-07-20T07:05:24;98457.31;;;19.28;65.51
62402;BME280;48440;51.224;22.506;2023-07-20T07:07:49;98468.00;;;19.29;65.78
62402;BME280;48440;51.224;22.506;2023-07-20T07:10:15;98467.59;;;19.48;65.14
62402;BME280;48440;51.224;22.506;2023-07-20T07:12:41;98475.16;;;19.51;64.98
62402;BME280;48440;51.224;22.506;2023-07-20T07:15:07;98482.31;;;19.44;65.06
62402;BME280;48440;51.224;22.506;2023-07-20T07:17:32;98478.19;;;19.29;65.49
62402;BME280;48440;51.224;22.506;2023-07-20T07:19:58;98475.81;;;19.19;66.37
62402;BME280;48440;51.224;22.506;2023-07-20T07:22:24;98482.25;;;19.23;66.21
62402;BME280;48440;51.224;22.506;2023-07-20T07:24:50;98480.38;;;19.15;66.66
62402;BME280;48440;51.224;22.506;2023-07-20T07:38:50;98540.84;;;18.68;69.77
62402;BME280;48440;51.224;22.506;2023-07-20T07:41:16;98542.25;;;18.74;69.83
62402;BME280;48440;51.224;22.506;2023-07-20T07:43:42;98541.28;;;18.79;69.83
62402;BME280;48440;51.224;22.506;2023-07-20T07:46:10;98540.16;;;18.80;69.30
62402;BME280;48440;51.224;22.506;2023-07-20T07:48:36;98544.53;;;18.72;68.99
62402;BME280;48440;51.224;22.506;2023-07-20T07:51:01;98540.34;;;18.66;70.17
62402;BME280;48440;51.224;22.506;2023-07-20T07:53:27;98545.53;;;18.68;69.80
62402;BME280;48440;51.224;22.506;2023-07-20T07:55:53;98555.38;;;18.60;69.71
62402;BME280;48440;51.224;22.506;2023-07-20T07:58:18;98551.00;;;18.50;70.71
62402;BME280;48440;51.224;22.506;2023-07-20T08:00:44;98545.66;;;18.54;70.94
62402;BME280;48440;51.224;22.506;2023-07-20T08:03:10;98538.72;;;18.48;71.02
62402;BME280;48440;51.224;22.506;2023-07-20T08:05:36;98536.78;;;18.48;71.02
62402;BME280;48440;51.224;22.506;2023-07-20T08:08:04;98537.75;;;18.52;71.08
62402;BME280;48440;51.224;22.506;2023-07-20T08:10:32;98541.78;;;18.55;71.32
62402;BME280;48440;51.224;22.506;2023-07-20T08:12:58;98538.91;;;18.60;71.43
62402;BME280;48440;51.224;22.506;2023-07-20T08:15:27;98523.66;;;18.71;71.29
62402;BME280;48440;51.224;22.506;2023-07-20T08:23:04;98511.44;;;19.07;69.06
62402;BME280;48440;51.224;22.506;2023-07-20T08:28:05;98513.19;;;19.20;67.80
62402;BME280;48440;51.224;22.506;2023-07-20T08:30:44;98527.50;;;19.34;68.24
62402;BME280;48440;51.224;22.506;2023-07-20T08:33:12;98529.94;;;19.36;67.61
62402;BME280;48440;51.224;22.506;2023-07-20T08:35:52;98538.03;;;19.32;67.39
62402;BME280;48440;51.224;22.506;2023-07-20T08:38:18;98533.56;;;19.19;68.46
62402;BME280;48440;51.224;22.506;2023-07-20T08:54:35;98543.47;;;19.03;67.69
62402;BME280;48440;51.224;22.506;2023-07-20T08:59:56;98552.84;;;19.10;68.26
62402;BME280;48440;51.224;22.506;2023-07-20T09:02:25;98556.91;;;19.04;67.96
62402;BME280;48440;51.224;22.506;2023-07-20T09:04:52;98563.06;;;19.01;66.96
62402;BME280;48440;51.224;22.506;2023-07-20T09:07:17;98563.53;;;19.03;66.30
62402;BME280;48440;51.224;22.506;2023-07-20T09:09:45;98566.41;;;19.15;67.40
62402;BME280;48440;51.224;22.506;2023-07-20T09:12:16;98561.00;;;19.36;67.83
62402;BME280;48440;51.224;22.506;2023-07-20T09:14:45;98570.81;;;19.54;67.83
62402;BME280;48440;51.224;22.506;2023-07-20T09:17:14;98565.66;;;19.82;66.83
62402;BME280;48440;51.224;22.506;2023-07-20T09:19:49;98570.69;;;20.01;65.92
62402;BME280;48440;51.224;22.506;2023-07-20T09:22:15;98572.03;;;20.24;64.67
62402;BME280;48440;51.224;22.506;2023-07-20T09:24:40;98575.00;;;20.40;64.11
62402;BME280;48440;51.224;22.506;2023-07-20T09:27:07;98580.97;;;20.42;63.30
62402;BME280;48440;51.224;22.506;2023-07-20T09:29:32;98564.97;;;20.56;62.86
62402;BME280;48440;51.224;22.506;2023-07-20T09:32:02;98567.78;;;20.69;62.72
62402;BME280;48440;51.224;22.506;2023-07-20T09:34:32;98573.97;;;20.65;62.87
62402;BME280;48440;51.224;22.506;2023-07-20T09:36:58;98578.06;;;20.59;63.46
62402;BME280;48440;51.224;22.506;2023-07-20T09:39:24;98584.22;;;20.44;64.32
62402;BME280;48440;51.224;22.506;2023-07-20T09:41:51;98591.34;;;20.45;64.68
62402;BME280;48440;51.224;22.506;2023-07-20T09:44:17;98598.94;;;20.48;64.58
62402;BME280;48440;51.224;22.506;2023-07-20T09:46:49;98590.19;;;20.46;64.62
62402;BME280;48440;51.224;22.506;2023-07-20T09:49:16;98602.50;;;20.49;64.60
62402;BME280;48440;51.224;22.506;2023-07-20T09:51:42;98606.84;;;20.71;63.52
62402;BME280;48440;51.224;22.506;2023-07-20T09:54:10;98604.88;;;20.71;63.22
62402;BME280;48440;51.224;22.506;2023-07-20T09:56:37;98610.31;;;20.80;62.73
62402;BME280;48440;51.224;22.506;2023-07-20T09:59:04;98610.38;;;20.92;62.91
62402;BME280;48440;51.224;22.506;2023-07-20T10:01:29;98606.66;;;20.88;63.02
62402;BME280;48440;51.224;22.506;2023-07-20T10:03:58;98606.63;;;20.76;63.17
62402;BME280;48440;51.224;22.506;2023-07-20T10:06:28;98612.66;;;20.90;62.75
62402;BME280;48440;51.224;22.506;2023-07-20T10:09:00;98616.81;;;20.96;62.15
62402;BME280;48440;51.224;22.506;2023-07-20T10:11:30;98611.22;;;21.05;62.60
62402;BME280;48440;51.224;22.506;2023-07-20T10:13:58;98624.91;;;21.13;62.73
62402;BME280;48440;51.224;22.506;2023-07-20T10:16:28;98614.00;;;21.17;62.37
62402;BME280;48440;51.224;22.506;2023-07-20T10:21:47;98614.88;;;21.29;60.27
62402;BME280;48440;51.224;22.506;2023-07-20T10:24:13;98608.91;;;21.27;59.67
62402;BME280;48440;51.224;22.506;2023-07-20T10:26:39;98617.06;;;21.36;59.20
62402;BME280;48440;51.224;22.506;2023-07-20T10:29:05;98608.97;;;21.19;60.50
62402;BME280;48440;51.224;22.506;2023-07-20T10:31:32;98607.84;;;21.32;60.76
62402;BME280;48440;51.224;22.506;2023-07-20T10:33:58;98608.13;;;21.63;60.39
62402;BME280;48440;51.224;22.506;2023-07-20T10:36:27;98598.47;;;21.70;61.30
62402;BME280;48440;51.224;22.506;2023-07-20T10:38:57;98603.75;;;21.62;60.88
62402;BME280;48440;51.224;22.506;2023-07-20T10:41:34;98599.50;;;21.65;59.66
62402;BME280;48440;51.224;22.506;2023-07-20T10:44:05;98601.00;;;21.62;59.11
62402;BME280;48440;51.224;22.506;2023-07-20T10:49:07;98602.94;;;21.62;59.05
62402;BME280;48440;51.224;22.506;2023-07-20T10:51:47;98604.69;;;21.79;58.81
62402;BME280;48440;51.224;22.506;2023-07-20T10:56:42;98613.66;;;21.88;58.31
62402;BME280;48440;51.224;22.506;2023-07-20T10:59:36;98611.94;;;21.83;59.06
62402;BME280;48440;51.224;22.506;2023-07-20T11:02:08;98613.09;;;21.94;58.10
62402;BME280;48440;51.224;22.506;2023-07-20T11:04:46;98611.06;;;22.04;57.41
62402;BME280;48440;51.224;22.506;2023-07-20T11:07:37;98613.88;;;21.95;58.27
62402;BME280;48440;51.224;22.506;2023-07-20T11:10:15;98608.25;;;22.28;57.71
62402;BME280;48440;51.224;22.506;2023-07-20T11:12:40;98609.22;;;22.48;56.54
62402;BME280;48440;51.224;22.506;2023-07-20T11:15:06;98615.16;;;22.62;55.60
62402;BME280;48440;51.224;22.506;2023-07-20T11:20:12;98614.38;;;22.61;55.25
62402;BME280;48440;51.224;22.506;2023-07-20T11:22:43;98604.97;;;22.38;56.78
62402;BME280;48440;51.224;22.506;2023-07-20T11:25:41;98607.28;;;22.36;55.50
62402;BME280;48440;51.224;22.506;2023-07-20T11:28:29;98610.50;;;22.38;54.72
62402;BME280;48440;51.224;22.506;2023-07-20T11:31:09;98605.59;;;22.31;55.84
62402;BME280;48440;51.224;22.506;2023-07-20T11:33:40;98608.47;;;22.23;55.41
62402;BME280;48440;51.224;22.506;2023-07-20T11:36:09;98613.44;;;22.17;55.28
62402;BME280;48440;51.224;22.506;2023-07-20T11:38:41;98608.47;;;22.23;54.90
62402;BME280;48440;51.224;22.506;2023-07-20T11:46:19;98599.31;;;22.47;54.63
62402;BME280;48440;51.224;22.506;2023-07-20T11:48:57;98599.22;;;22.43;54.26
62402;BME280;48440;51.224;22.506;2023-07-20T11:54:17;98595.63;;;22.55;54.33
62402;BME280;48440;51.224;22.506;2023-07-20T11:56:43;98595.28;;;22.56;54.59
62402;BME280;48440;51.224;22.506;2023-07-20T11:59:13;98598.84;;;22.57;54.33
62402;BME280;48440;51.224;22.506;2023-07-20T12:01:39;98594.03;;;22.54;54.15
62402;BME280;48440;51.224;22.506;2023-07-20T12:04:05;98599.78;;;22.49;54.22
62402;BME280;48440;51.224;22.506;2023-07-20T12:06:32;98592.09;;;22.42;53.40
62402;BME280;48440;51.224;22.506;2023-07-20T12:08:58;98586.03;;;22.24;54.45
62402;BME280;48440;51.224;22.506;2023-07-20T12:11:35;98586.50;;;22.14;54.89
62402;BME280;48440;51.224;22.506;2023-07-20T12:14:07;98581.66;;;22.11;55.05
62402;BME280;48440;51.224;22.506;2023-07-20T12:16:34;98588.00;;;22.12;54.91
62402;BME280;48440;51.224;22.506;2023-07-20T12:19:13;98588.47;;;22.14;55.44
62402;BME280;48440;51.224;22.506;2023-07-20T12:24:27;98588.00;;;22.12;55.60
62402;BME280;48440;51.224;22.506;2023-07-20T12:26:57;98594.00;;;22.02;55.73
62402;BME280;48440;51.224;22.506;2023-07-20T12:29:39;98586.72;;;22.09;56.10
62402;BME280;48440;51.224;22.506;2023-07-20T12:34:43;98586.97;;;22.16;55.66
62402;BME280;48440;51.224;22.506;2023-07-20T12:43:19;98576.00;;;22.32;54.22
62402;BME280;48440;51.224;22.506;2023-07-20T12:48:31;98573.59;;;22.30;54.70
62402;BME280;48440;51.224;22.506;2023-07-20T12:51:06;98576.88;;;22.36;54.29
62402;BME280;48440;51.224;22.506;2023-07-20T12:53:32;98571.97;;;22.29;53.67
62402;BME280;48440;51.224;22.506;2023-07-20T12:56:02;98578.56;;;22.13;54.96
62402;BME280;48440;51.224;22.506;2023-07-20T12:58:28;98577.75;;;22.00;55.38
62402;BME280;48440;51.224;22.506;2023-07-20T13:00:54;98568.44;;;21.92;55.98
62402;BME280;48440;51.224;22.506;2023-07-20T13:03:20;98572.56;;;21.98;55.58
62402;BME280;48440;51.224;22.506;2023-07-20T13:05:53;98574.78;;;22.05;55.11
62402;BME280;48440;51.224;22.506;2023-07-20T13:08:19;98577.44;;;22.02;55.49
62402;BME280;48440;51.224;22.506;2023-07-20T13:11:01;98568.09;;;21.94;54.82
62402;BME280;48440;51.224;22.506;2023-07-20T13:13:34;98576.03;;;21.95;54.09
62402;BME280;48440;51.224;22.506;2023-07-20T13:16:09;98579.25;;;21.97;53.88
62402;BME280;48440;51.224;22.506;2023-07-20T13:18:41;98575.59;;;21.81;55.81
62402;BME280;48440;51.224;22.506;2023-07-20T13:21:17;98569.59;;;21.67;55.49
62402;BME280;48440;51.224;22.506;2023-07-20T13:23:56;98573.63;;;21.70;54.74
62402;BME280;48440;51.224;22.506;2023-07-20T13:26:32;98569.59;;;21.67;54.80
62402;BME280;48440;51.224;22.506;2023-07-20T13:28:58;98578.91;;;21.62;54.50
62402;BME280;48440;51.224;22.506;2023-07-20T13:31:26;98570.03;;;21.57;55.33
62402;BME280;48440;51.224;22.506;2023-07-20T13:33:58;98564.31;;;21.50;55.64
62402;BME280;48440;51.224;22.506;2023-07-20T13:36:27;98558.91;;;21.41;55.45
62402;BME280;48440;51.224;22.506;2023-07-20T13:38:59;98567.75;;;21.47;55.78
62402;BME280;48440;51.224;22.506;2023-07-20T13:41:32;98564.91;;;21.55;55.82
62402;BME280;48440;51.224;22.506;2023-07-20T13:44:01;98560.63;;;21.58;55.76
62402;BME280;48440;51.224;22.506;2023-07-20T13:46:34;98560.16;;;21.68;55.29
62402;BME280;48440;51.224;22.506;2023-07-20T13:49:09;98555.91;;;21.71;54.92
62402;BME280;48440;51.224;22.506;2023-07-20T13:51:36;98569.03;;;21.49;56.78
62402;BME280;48440;51.224;22.506;2023-07-20T13:54:10;98565.44;;;21.37;56.80
62402;BME280;48440;51.224;22.506;2023-07-20T13:56:41;98556.69;;;21.34;56.22
62402;BME280;48440;51.224;22.506;2023-07-20T13:59:17;98558.56;;;21.30;55.92
62402;BME280;48440;51.224;22.506;2023-07-20T14:04:22;98554.00;;;21.14;55.33
62402;BME280;48440;51.224;22.506;2023-07-20T14:06:48;98543.75;;;21.02;55.73
62402;BME280;48440;51.224;22.506;2023-07-20T14:09:16;98557.22;;;21.16;56.47
62402;BME280;48440;51.224;22.506;2023-07-20T14:11:41;98552.56;;;21.28;56.58
62402;BME280;48440;51.224;22.506;2023-07-20T14:14:07;98562.81;;;21.40;56.16